Arrantzale — EBVT — position and weather

sailwx.info

Track history (hours):
 
Tides and Currents Weather Stations Pressure Air Temp Water Temp Dewpoint Dewpoint Depression Visibility Wind Speed Wind Dir Waves Ship Positions

Arrantzale

Last reported at 2016-Jul-26 20:30 UTC. Time now 2016-Jul-29 04:04 UTC.
Position N 43°23' W 001°47'.

Length 32 m.

Type: Fishing. MMSI: 224065290.

Date/timePositionNaut miles runAvg speedWind from/ knotsBaromVisibWave heightAir tempDewpointWater temp
2016-Jul-26 20:30N 43°23' W 001°47'0 0.0
2016-Jul-26 10:08N 43°23' W 001°48'0 0.0
2016-Jul-26 09:33N 43°23' W 001°48'0 0.0
2016-Jul-26 08:31N 43°23' W 001°48'0 0.0
2016-Jul-26 04:27N 43°23' W 001°47'0 0.0
2016-Jul-26 03:33N 43°23' W 001°47'0 0.0
2016-Jul-26 02:33N 43°23' W 001°47'0 0.0
2016-Jul-26 01:33N 43°23' W 001°47'0 0.0
2016-Jul-26 00:33N 43°23' W 001°47'0 0.0
2016-Jul-25 23:33N 43°23' W 001°47'0 0.0
2016-Jul-25 22:33N 43°23' W 001°47'0 0.0
2016-Jul-25 21:33N 43°23' W 001°47'0 0.0
2016-Jul-25 20:33N 43°23' W 001°47'0 0.0
2016-Jul-25 19:33N 43°23' W 001°47'0 0.0
2016-Jul-25 18:33N 43°23' W 001°47'0 0.0
2016-Jul-25 17:33N 43°23' W 001°47'0 0.0
2016-Jul-25 16:33N 43°23' W 001°47'0 0.0
2016-Jul-25 15:33N 43°23' W 001°47'0 0.0
2016-Jul-25 14:33N 43°23' W 001°47'0 0.0
2016-Jul-25 13:33N 43°23' W 001°47'0 0.0
2016-Jul-25 12:31N 43°23' W 001°47'0 0.0
2016-Jul-25 11:33N 43°23' W 001°47'0 0.0
2016-Jul-25 10:33N 43°23' W 001°47'0 0.0
2016-Jul-25 08:25N 43°23' W 001°47'0 0.0
2016-Jul-25 07:32N 43°23' W 001°47'0 0.0
2016-Jul-25 06:30N 43°23' W 001°47'0 0.0
2016-Jul-25 05:33N 43°23' W 001°47'0 0.0
2016-Jul-25 04:12N 43°23' W 001°47'0 0.0
2016-Jul-25 03:31N 43°23' W 001°47'0 0.0
2016-Jul-25 02:19N 43°23' W 001°47'  
2016-Jul-19 16:33N 44°37' W 005°51'18 7.6
2016-Jul-19 14:08N 44°34' W 006°16'121 7.7
2016-Jul-18 22:27N 44°26' W 003°27'58 3.0
2016-Jul-18 03:25N 44°07' W 002°11'910.4
2016-Jul-18 02:33N 44°06' W 001°59'1010.3
2016-Jul-18 01:33N 44°04' W 001°44'8 2.4
2016-Jul-17 22:08N 43°56' W 001°47'19 9.6
2016-Jul-17 20:09N 43°37' W 001°48'1010.2
2016-Jul-17 19:09N 43°27' W 001°47'4 6.0
2016-Jul-17 18:32N 43°23' W 001°48'0 0.0
2016-Jul-17 17:33N 43°23' W 001°48'0 0.0
2016-Jul-17 15:32N 43°23' W 001°47'0 0.0
2016-Jul-17 14:33N 43°23' W 001°47'0 0.0
2016-Jul-17 13:33N 43°23' W 001°47'0 0.0
2016-Jul-17 12:33N 43°23' W 001°47'0 0.0
2016-Jul-17 06:33N 43°23' W 001°47'0 0.0
2016-Jul-17 04:18N 43°23' W 001°47'0 0.0
2016-Jul-17 01:17N 43°23' W 001°47'0 0.0
2016-Jul-16 21:22N 43°23' W 001°47'  
Track history (hours):
 
Tides and Currents Weather Stations Pressure Air Temp Water Temp Dewpoint Dewpoint Depression Visibility Wind Speed Wind Dir Waves Ship Positions

Arrantzale

Last reported at 2016-Jul-26 20:30 UTC. Time now 2016-Jul-29 04:04 UTC.
Position N 43°23' W 001°47'.

Length 32 m.

Type: Fishing. MMSI: 224065290.

Date/timePositionNaut miles runAvg speedWind from/ knotsBaromVisibWave heightAir tempDewpointWater temp
2016-Jul-26 20:30N 43°23' W 001°47'0 0.0
2016-Jul-26 10:08N 43°23' W 001°48'0 0.0
2016-Jul-26 09:33N 43°23' W 001°48'0 0.0
2016-Jul-26 08:31N 43°23' W 001°48'0 0.0
2016-Jul-26 04:27N 43°23' W 001°47'0 0.0
2016-Jul-26 03:33N 43°23' W 001°47'0 0.0
2016-Jul-26 02:33N 43°23' W 001°47'0 0.0
2016-Jul-26 01:33N 43°23' W 001°47'0 0.0
2016-Jul-26 00:33N 43°23' W 001°47'0 0.0
2016-Jul-25 23:33N 43°23' W 001°47'0 0.0
2016-Jul-25 22:33N 43°23' W 001°47'0 0.0
2016-Jul-25 21:33N 43°23' W 001°47'0 0.0
2016-Jul-25 20:33N 43°23' W 001°47'0 0.0
2016-Jul-25 19:33N 43°23' W 001°47'0 0.0
2016-Jul-25 18:33N 43°23' W 001°47'0 0.0
2016-Jul-25 17:33N 43°23' W 001°47'0 0.0
2016-Jul-25 16:33N 43°23' W 001°47'0 0.0
2016-Jul-25 15:33N 43°23' W 001°47'0 0.0
2016-Jul-25 14:33N 43°23' W 001°47'0 0.0
2016-Jul-25 13:33N 43°23' W 001°47'0 0.0
2016-Jul-25 12:31N 43°23' W 001°47'0 0.0
2016-Jul-25 11:33N 43°23' W 001°47'0 0.0
2016-Jul-25 10:33N 43°23' W 001°47'0 0.0
2016-Jul-25 08:25N 43°23' W 001°47'0 0.0
2016-Jul-25 07:32N 43°23' W 001°47'0 0.0
2016-Jul-25 06:30N 43°23' W 001°47'0 0.0
2016-Jul-25 05:33N 43°23' W 001°47'0 0.0
2016-Jul-25 04:12N 43°23' W 001°47'0 0.0
2016-Jul-25 03:31N 43°23' W 001°47'0 0.0
2016-Jul-25 02:19N 43°23' W 001°47'  
2016-Jul-19 16:33N 44°37' W 005°51'18 7.6
2016-Jul-19 14:08N 44°34' W 006°16'121 7.7
2016-Jul-18 22:27N 44°26' W 003°27'58 3.0
2016-Jul-18 03:25N 44°07' W 002°11'910.4
2016-Jul-18 02:33N 44°06' W 001°59'1010.3
2016-Jul-18 01:33N 44°04' W 001°44'8 2.4
2016-Jul-17 22:08N 43°56' W 001°47'19 9.6
2016-Jul-17 20:09N 43°37' W 001°48'1010.2
2016-Jul-17 19:09N 43°27' W 001°47'4 6.0
2016-Jul-17 18:32N 43°23' W 001°48'0 0.0
2016-Jul-17 17:33N 43°23' W 001°48'0 0.0
2016-Jul-17 15:32N 43°23' W 001°47'0 0.0
2016-Jul-17 14:33N 43°23' W 001°47'0 0.0
2016-Jul-17 13:33N 43°23' W 001°47'0 0.0
2016-Jul-17 12:33N 43°23' W 001°47'0 0.0
2016-Jul-17 06:33N 43°23' W 001°47'0 0.0
2016-Jul-17 04:18N 43°23' W 001°47'0 0.0
2016-Jul-17 01:17N 43°23' W 001°47'0 0.0
2016-Jul-16 21:22N 43°23' W 001°47'  

Dump ship's entire track history